createdAt,value
2022-09-04T00:00:15.946Z,17.09
2022-09-04T00:03:04.094Z,17.03
2022-09-04T00:05:44.146Z,16.65
2022-09-04T00:08:48.323Z,17.07
2022-09-04T00:12:00.326Z,16.99
2022-09-04T00:14:48.192Z,17.17
2022-09-04T00:17:31.320Z,17.37
2022-09-04T00:20:03.832Z,17.38
2022-09-04T00:22:33.755Z,17.33
2022-09-04T00:25:17.290Z,17.19
2022-09-04T00:27:47.636Z,16.75
2022-09-04T00:30:20.423Z,16.80
2022-09-04T00:33:09.327Z,17.19
2022-09-04T00:35:44.768Z,17.23
2022-09-04T00:38:19.253Z,17.18
2022-09-04T00:41:14.141Z,16.66
2022-09-04T00:43:56.957Z,17.22
2022-09-04T00:46:26.967Z,16.64
2022-09-04T00:49:20.106Z,16.66
2022-09-04T00:51:47.064Z,17.00
2022-09-04T00:54:33.938Z,17.00
2022-09-04T00:57:46.030Z,17.04
2022-09-04T01:00:17.947Z,17.06
2022-09-04T01:02:57.129Z,17.20
2022-09-04T01:05:47.270Z,17.00
2022-09-04T01:08:35.678Z,17.06
2022-09-04T01:11:15.189Z,16.38
2022-09-04T01:14:13.486Z,16.94
2022-09-04T01:17:12.593Z,16.18
2022-09-04T01:19:52.339Z,16.37
2022-09-04T01:22:40.636Z,16.84
2022-09-04T01:25:48.105Z,16.64
2022-09-04T01:28:28.402Z,16.44
2022-09-04T01:31:15.520Z,16.33
2022-09-04T01:36:49.483Z,16.38
2022-09-04T01:39:19.535Z,16.66
2022-09-04T01:42:05.358Z,16.98
2022-09-04T01:44:34.193Z,16.82
2022-09-04T01:47:11.193Z,17.05
2022-09-04T01:49:59.335Z,17.26
2022-09-04T01:52:45.637Z,17.15
2022-09-04T01:55:42.120Z,16.76
2022-09-04T01:58:12.138Z,16.40
2022-09-04T02:01:13.805Z,16.66
2022-09-04T02:04:02.867Z,16.33
2022-09-04T02:06:38.804Z,16.11
2022-09-04T02:09:42.049Z,16.78
2022-09-04T02:12:38.026Z,16.27
2022-09-04T02:15:12.989Z,16.09
2022-09-04T02:17:46.889Z,16.29
2022-09-04T02:20:19.812Z,16.18
2022-09-04T02:22:58.825Z,16.15
2022-09-04T02:25:36.321Z,16.23
2022-09-04T02:28:18.396Z,16.33
2022-09-04T02:30:46.937Z,16.23
2022-09-04T02:33:35.540Z,16.41
2022-09-04T02:36:13.747Z,16.22
2022-09-04T02:38:52.829Z,15.87
2022-09-04T02:41:37.329Z,16.08
2022-09-04T02:44:10.591Z,16.29
2022-09-04T02:46:48.771Z,16.52
2022-09-04T02:49:25.025Z,15.89
2022-09-04T02:52:04.771Z,15.85
2022-09-04T02:55:09.493Z,16.19
2022-09-04T02:57:59.289Z,16.03
2022-09-04T03:00:54.533Z,16.21
2022-09-04T03:03:27.740Z,16.22
2022-09-04T03:06:09.754Z,16.28
2022-09-04T03:11:45.892Z,16.25
2022-09-04T03:14:36.483Z,16.30
2022-09-04T03:17:24.669Z,16.29
2022-09-04T03:19:57.242Z,16.04
2022-09-04T03:22:31.221Z,15.69
2022-09-04T03:25:05.161Z,15.75
2022-09-04T03:27:33.408Z,15.94
2022-09-04T03:30:08.010Z,16.13
2022-09-04T03:32:51.998Z,15.73
2022-09-04T03:35:44.881Z,15.93
2022-09-04T03:38:24.291Z,15.93
2022-09-04T03:41:06.219Z,15.72
2022-09-04T03:43:47.821Z,15.99
2022-09-04T03:46:14.693Z,15.74
2022-09-04T03:49:02.835Z,15.56
2022-09-04T03:51:43.024Z,15.83
2022-09-04T03:54:13.001Z,16.08
2022-09-04T03:56:56.048Z,15.62
2022-09-04T03:59:49.478Z,15.69
2022-09-04T04:02:22.424Z,15.92
2022-09-04T04:05:00.285Z,15.52
2022-09-04T04:07:58.366Z,15.70
2022-09-04T04:10:57.107Z,15.84
2022-09-04T04:13:55.311Z,16.34
2022-09-04T04:17:00.244Z,16.61
2022-09-04T04:19:42.784Z,16.69
2022-09-04T04:22:34.286Z,16.80
2022-09-04T04:25:04.238Z,16.57
2022-09-04T04:27:47.328Z,16.78
2022-09-04T04:30:19.608Z,16.89
2022-09-04T04:33:17.628Z,17.13
2022-09-04T04:35:48.334Z,16.92
2022-09-04T04:38:25.094Z,16.63
2022-09-04T04:41:04.186Z,16.93
2022-09-04T04:44:12.741Z,17.16
2022-09-04T04:46:52.068Z,17.19
2022-09-04T04:49:37.380Z,17.03
2022-09-04T04:52:08.935Z,16.65
2022-09-04T04:54:57.133Z,16.49
2022-09-04T04:58:16.432Z,16.28
2022-09-04T05:00:52.486Z,16.60
2022-09-04T05:03:25.532Z,16.45
2022-09-04T05:06:07.087Z,16.74
2022-09-04T05:08:56.094Z,16.97
2022-09-04T05:11:52.496Z,16.37
2022-09-04T05:14:19.390Z,16.96
2022-09-04T05:17:11.958Z,16.76
2022-09-04T05:19:45.943Z,16.71
2022-09-04T05:22:24.920Z,16.71
2022-09-04T05:25:19.271Z,17.51
2022-09-04T05:27:58.649Z,16.86
2022-09-04T05:30:44.167Z,16.61
2022-09-04T05:33:11.049Z,16.68
2022-09-04T05:35:56.949Z,17.06
2022-09-04T05:38:51.371Z,16.94
2022-09-04T05:41:39.754Z,16.90
2022-09-04T05:44:18.554Z,17.34
2022-09-04T05:47:16.406Z,17.22
2022-09-04T05:49:46.422Z,16.79
2022-09-04T05:52:51.186Z,17.80
2022-09-04T05:55:42.464Z,17.91
2022-09-04T05:58:22.856Z,17.91
2022-09-04T06:01:12.531Z,18.20
2022-09-04T06:04:06.108Z,18.30
2022-09-04T06:06:42.772Z,18.28
2022-09-04T06:09:31.399Z,18.44
2022-09-04T06:12:19.612Z,18.00
2022-09-04T06:14:57.131Z,18.88
2022-09-04T06:17:42.460Z,19.23
2022-09-04T06:20:28.046Z,19.88
2022-09-04T06:23:03.067Z,19.90
2022-09-04T06:26:01.365Z,21.28
2022-09-04T06:28:43.600Z,21.81
2022-09-04T06:31:19.246Z,21.03
2022-09-04T06:34:07.714Z,22.41
2022-09-04T06:37:04.174Z,21.31
2022-09-04T06:39:51.192Z,22.96
2022-09-04T06:42:47.560Z,22.04
2022-09-04T06:45:47.526Z,21.87
2022-09-04T06:48:35.572Z,23.14
2022-09-04T06:51:07.894Z,24.21
2022-09-04T06:53:42.878Z,23.36
2022-09-04T06:56:28.723Z,23.48
2022-09-04T06:59:08.510Z,23.51
2022-09-04T07:02:01.643Z,24.06
2022-09-04T07:04:38.543Z,22.81
2022-09-04T07:07:16.443Z,24.09
2022-09-04T07:09:49.665Z,23.68
2022-09-04T07:12:53.030Z,24.06
2022-09-04T07:15:24.853Z,24.01
2022-09-04T07:18:30.018Z,24.83
2022-09-04T07:21:06.491Z,24.84
2022-09-04T07:24:06.998Z,25.08
2022-09-04T07:26:37.190Z,25.51
2022-09-04T07:29:31.551Z,25.93
2022-09-04T07:32:25.455Z,26.10
2022-09-04T07:35:11.255Z,27.71
2022-09-04T07:37:50.371Z,26.55
2022-09-04T07:40:20.208Z,27.60
2022-09-04T07:43:06.051Z,26.13
2022-09-04T07:45:51.447Z,25.92
2022-09-04T07:48:21.951Z,25.93
2022-09-04T07:51:05.987Z,27.14
2022-09-04T07:53:49.797Z,26.12
2022-09-04T07:56:46.106Z,27.47
2022-09-04T07:59:22.675Z,26.85
2022-09-04T08:02:11.152Z,27.61
2022-09-04T08:04:51.095Z,26.27
2022-09-04T08:07:28.729Z,27.10
2022-09-04T08:09:58.697Z,27.25
2022-09-04T08:13:09.953Z,27.36
2022-09-04T08:15:43.829Z,27.10
2022-09-04T08:18:53.138Z,27.13
2022-09-04T08:21:33.717Z,28.74
2022-09-04T08:24:13.861Z,27.47
2022-09-04T08:26:47.857Z,27.64
2022-09-04T08:29:45.753Z,26.18
2022-09-04T08:32:39.687Z,27.61
2022-09-04T08:35:39.093Z,28.38
2022-09-04T08:38:36.464Z,27.59
2022-09-04T08:41:41.865Z,27.52
2022-09-04T08:44:33.663Z,28.53
2022-09-04T08:47:10.797Z,28.39
2022-09-04T08:50:05.726Z,29.70
2022-09-04T08:52:52.694Z,29.81
2022-09-04T08:55:26.522Z,28.74
2022-09-04T08:57:53.395Z,29.59
2022-09-04T09:00:39.616Z,30.08
2022-09-04T09:03:30.795Z,29.16
2022-09-04T09:06:42.914Z,31.06
2022-09-04T09:09:31.679Z,30.87
2022-09-04T09:12:09.095Z,29.94
2022-09-04T09:14:38.968Z,30.12
2022-09-04T09:17:38.864Z,28.88
2022-09-04T09:20:08.943Z,28.93
2022-09-04T09:22:44.863Z,30.35
2022-09-04T09:25:15.907Z,31.31
2022-09-04T09:28:01.884Z,31.90
2022-09-04T09:30:51.194Z,31.04
2022-09-04T09:33:33.524Z,30.15
2022-09-04T09:36:06.677Z,30.21
2022-09-04T09:38:36.395Z,31.89
2022-09-04T09:41:34.603Z,31.57
2022-09-04T09:44:26.875Z,30.71
2022-09-04T09:47:25.301Z,31.26
2022-09-04T09:50:17.058Z,29.37
2022-09-04T09:53:13.216Z,29.10
2022-09-04T09:55:58.930Z,30.11
2022-09-04T09:58:37.369Z,31.25
2022-09-04T10:01:24.756Z,31.60
2022-09-04T10:04:27.536Z,30.93
2022-09-04T10:07:19.816Z,31.09
2022-09-04T10:10:18.262Z,29.96
2022-09-04T10:12:51.434Z,30.75
2022-09-04T10:15:52.420Z,32.20
2022-09-04T10:18:57.205Z,30.77
2022-09-04T10:21:43.185Z,32.18
2022-09-04T10:24:20.085Z,32.19
2022-09-04T10:27:28.949Z,32.04
2022-09-04T10:30:12.110Z,31.47
2022-09-04T10:33:11.555Z,30.80
2022-09-04T10:36:06.469Z,30.21
2022-09-04T10:39:04.143Z,28.84
2022-09-04T10:41:35.504Z,27.47
2022-09-04T10:44:17.957Z,29.71
2022-09-04T10:47:02.492Z,30.46
2022-09-04T10:49:55.251Z,29.91
2022-09-04T10:52:54.946Z,30.90
2022-09-04T10:55:31.547Z,29.73
2022-09-04T10:58:21.016Z,30.52
2022-09-04T11:01:23.114Z,30.40
2022-09-04T11:04:05.402Z,31.33
2022-09-04T11:06:32.241Z,31.00
2022-09-04T11:09:30.323Z,28.80
2022-09-04T11:12:10.164Z,29.02
2022-09-04T11:15:19.003Z,28.15
2022-09-04T11:18:04.094Z,29.48
2022-09-04T11:20:55.031Z,30.19
2022-09-04T11:23:51.066Z,30.15
2022-09-04T11:26:39.292Z,29.83
2022-09-04T11:29:15.256Z,29.55
2022-09-04T11:32:08.312Z,30.39
2022-09-04T11:34:57.233Z,29.54
2022-09-04T11:37:57.870Z,30.76
2022-09-04T11:40:54.341Z,30.76
2022-09-04T11:43:27.399Z,30.24
2022-09-04T11:46:27.531Z,29.65
2022-09-04T11:49:15.418Z,28.01
2022-09-04T11:52:04.120Z,28.86
2022-09-04T11:54:49.601Z,30.22
2022-09-04T11:57:28.589Z,28.84
2022-09-04T12:00:01.485Z,29.60
2022-09-04T12:02:56.886Z,29.73
2022-09-04T12:05:55.256Z,30.21
2022-09-04T12:08:35.971Z,29.49
2022-09-04T12:11:23.857Z,29.14
2022-09-04T12:13:57.371Z,29.67
2022-09-04T12:16:46.083Z,30.28
2022-09-04T12:19:39.993Z,30.14
2022-09-04T12:22:14.578Z,30.73
2022-09-04T12:24:41.507Z,31.17
2022-09-04T12:27:30.217Z,29.61
2022-09-04T12:30:04.086Z,29.95
2022-09-04T12:33:08.421Z,29.67
2022-09-04T12:36:14.661Z,29.96
2022-09-04T12:38:47.569Z,29.35
2022-09-04T12:41:50.037Z,29.50
2022-09-04T12:44:41.959Z,28.94
2022-09-04T12:47:18.532Z,28.89
2022-09-04T12:50:21.047Z,28.56
2022-09-04T12:52:57.308Z,28.36
2022-09-04T12:56:03.897Z,27.37
2022-09-04T12:58:52.332Z,28.03
2022-09-04T13:01:40.498Z,27.85
2022-09-04T13:04:42.015Z,28.73
2022-09-04T13:07:41.104Z,29.04
2022-09-04T13:10:08.186Z,28.93
2022-09-04T13:13:00.685Z,28.62
2022-09-04T13:15:36.687Z,28.69
2022-09-04T13:18:21.317Z,28.17
2022-09-04T13:21:03.363Z,27.79
2022-09-04T13:24:03.209Z,28.03
2022-09-04T13:26:57.327Z,28.23
2022-09-04T13:29:40.452Z,28.63
2022-09-04T13:32:38.025Z,28.46
2022-09-04T13:35:17.278Z,27.91
2022-09-04T13:38:15.435Z,28.32
2022-09-04T13:41:05.065Z,27.92
2022-09-04T13:43:56.767Z,28.74
2022-09-04T13:46:30.229Z,28.58
2022-09-04T13:49:05.519Z,27.58
2022-09-04T13:51:40.207Z,27.05
2022-09-04T13:54:14.252Z,27.05
2022-09-04T13:57:06.117Z,26.90
2022-09-04T13:59:34.369Z,27.39
2022-09-04T14:02:06.921Z,27.77
2022-09-04T14:04:50.857Z,27.08
2022-09-04T14:07:29.807Z,27.74
2022-09-04T14:10:17.909Z,27.45
2022-09-04T14:13:00.148Z,27.47
2022-09-04T14:16:01.944Z,27.55
2022-09-04T14:18:45.360Z,27.31
2022-09-04T14:21:33.672Z,26.57
2022-09-04T14:24:18.979Z,27.31
2022-09-04T14:27:11.327Z,27.07
2022-09-04T14:30:07.180Z,26.29
2022-09-04T14:32:47.043Z,26.30
2022-09-04T14:35:35.952Z,26.37
2022-09-04T14:38:35.441Z,26.54
2022-09-04T14:41:02.264Z,26.92
2022-09-04T14:43:44.679Z,27.19
2022-09-04T14:46:14.361Z,26.58
2022-09-04T14:48:47.098Z,26.60
2022-09-04T14:51:23.036Z,27.06
2022-09-04T14:53:52.674Z,26.87
2022-09-04T14:56:33.511Z,26.74
2022-09-04T14:59:12.867Z,26.91
2022-09-04T15:02:15.948Z,27.55
2022-09-04T15:04:51.450Z,27.72
2022-09-04T15:07:29.909Z,27.17
2022-09-04T15:10:16.303Z,27.06
2022-09-04T15:12:50.586Z,27.70
2022-09-04T15:15:23.167Z,26.57
2022-09-04T15:18:19.995Z,26.32
2022-09-04T15:20:54.123Z,26.36
2022-09-04T15:23:32.993Z,26.18
2022-09-04T15:26:07.245Z,26.28
2022-09-04T15:28:38.623Z,26.44
2022-09-04T15:31:20.880Z,25.93
2022-09-04T15:33:48.886Z,25.91
2022-09-04T15:36:18.449Z,25.79
2022-09-04T15:39:01.419Z,25.58
2022-09-04T15:41:42.284Z,25.46
2022-09-04T15:44:32.268Z,25.74
2022-09-04T15:47:40.399Z,25.94
2022-09-04T15:50:21.749Z,25.90
2022-09-04T15:53:18.636Z,25.98
2022-09-04T15:55:48.468Z,25.29
2022-09-04T15:58:30.198Z,25.42
2022-09-04T16:01:06.524Z,25.14
2022-09-04T16:03:53.197Z,25.59
2022-09-04T16:06:54.570Z,25.19
2022-09-04T16:09:27.912Z,25.24
2022-09-04T16:12:04.352Z,25.26
2022-09-04T16:14:38.409Z,24.75
2022-09-04T16:17:20.275Z,25.16
2022-09-04T16:19:53.514Z,25.16
2022-09-04T16:22:53.009Z,25.39
2022-09-04T16:25:27.266Z,25.22
2022-09-04T16:28:02.412Z,24.76
2022-09-04T16:30:43.062Z,24.83
2022-09-04T16:33:39.879Z,24.72
2022-09-04T16:36:14.065Z,24.26
2022-09-04T16:38:52.872Z,24.49
2022-09-04T16:41:25.636Z,24.10
2022-09-04T16:44:25.686Z,24.65
2022-09-04T16:47:10.581Z,24.37
2022-09-04T16:49:59.538Z,24.27
2022-09-04T16:52:43.905Z,24.34
2022-09-04T16:55:14.745Z,23.76
2022-09-04T16:57:53.447Z,23.95
2022-09-04T17:00:22.507Z,23.70
2022-09-04T17:02:58.793Z,23.86
2022-09-04T17:05:35.170Z,23.71
2022-09-04T17:08:25.423Z,23.83
2022-09-04T17:11:08.985Z,23.73
2022-09-04T17:13:45.745Z,23.69
2022-09-04T17:16:21.928Z,23.45
2022-09-04T17:18:54.607Z,23.77
2022-09-04T17:25:26.454Z,23.22
2022-09-04T17:28:56.995Z,23.45
2022-09-04T17:29:15.825Z,23.21
2022-09-04T17:31:09.325Z,23.29
2022-09-04T17:40:38.111Z,23.31
2022-09-04T17:40:39.845Z,23.46
2022-09-04T17:40:54.773Z,23.60
2022-09-04T17:43:23.527Z,23.32
2022-09-04T17:46:12.708Z,22.85
2022-09-04T17:48:45.073Z,23.24
2022-09-04T17:51:21.761Z,22.74
2022-09-04T17:53:55.505Z,23.10
2022-09-04T17:56:28.209Z,22.38
2022-09-04T17:59:12.158Z,22.36
2022-09-04T18:02:01.315Z,22.61
2022-09-04T18:04:47.303Z,22.45
2022-09-04T18:07:53.172Z,22.27
2022-09-04T18:10:38.208Z,22.17
2022-09-04T18:13:36.780Z,21.85
2022-09-04T18:16:14.534Z,21.67
2022-09-04T18:18:59.122Z,21.67
2022-09-04T18:21:30.061Z,21.74
2022-09-04T18:24:09.505Z,21.77
2022-09-04T18:26:41.191Z,21.83
2022-09-04T18:31:07.303Z,21.56
2022-09-04T18:37:18.591Z,21.39
2022-09-04T18:37:24.549Z,21.74
2022-09-04T18:39:09.027Z,21.59
2022-09-04T18:49:57.446Z,21.69
2022-09-04T18:50:34.959Z,21.49
2022-09-04T18:50:40.367Z,21.68
2022-09-04T18:53:37.453Z,21.71
2022-09-04T18:56:20.869Z,21.36
2022-09-04T18:59:02.520Z,21.31
2022-09-04T19:01:45.702Z,21.36
2022-09-04T19:04:19.425Z,21.76
2022-09-04T19:07:07.419Z,21.15
2022-09-04T19:10:09.392Z,21.73
2022-09-04T19:12:48.022Z,21.05
2022-09-04T19:15:49.083Z,21.29
2022-09-04T19:18:58.413Z,21.11
2022-09-04T19:22:09.220Z,21.11
2022-09-04T19:24:56.600Z,20.95
2022-09-04T19:27:53.165Z,21.22
2022-09-04T19:30:27.916Z,20.97
2022-09-04T19:33:16.059Z,20.41
2022-09-04T19:35:58.062Z,20.30
2022-09-04T19:45:56.852Z,20.81
2022-09-04T19:46:00.852Z,20.79
2022-09-04T19:46:15.049Z,20.81
2022-09-04T19:47:26.951Z,20.71
2022-09-04T19:53:23.137Z,21.22
2022-09-04T19:53:38.680Z,21.02
2022-09-04T19:56:27.506Z,20.83
2022-09-04T19:59:18.585Z,20.68
2022-09-04T20:01:52.280Z,20.35
2022-09-04T20:04:47.084Z,20.76
2022-09-04T20:07:46.881Z,20.23
2022-09-04T20:10:23.046Z,20.13
2022-09-04T20:13:01.853Z,20.26
2022-09-04T20:15:31.645Z,20.06
2022-09-04T20:18:17.370Z,20.24
2022-09-04T20:21:01.274Z,20.53
2022-09-04T20:23:38.207Z,20.08
2022-09-04T20:26:23.841Z,19.88
2022-09-04T20:29:06.075Z,19.93
2022-09-04T20:31:54.938Z,20.06
2022-09-04T20:34:43.668Z,19.80
2022-09-04T20:37:20.245Z,19.83
2022-09-04T20:40:26.867Z,19.66
2022-09-04T20:43:03.302Z,19.85
2022-09-04T20:50:03.224Z,19.39
2022-09-04T20:52:50.004Z,19.30
2022-09-04T20:52:52.792Z,19.51
2022-09-04T20:54:23.444Z,19.61
2022-09-04T21:00:02.674Z,19.72
2022-09-04T21:03:20.866Z,19.44
2022-09-04T21:03:41.792Z,19.14
2022-09-04T21:06:30.454Z,19.18
2022-09-04T21:09:13.366Z,19.33
2022-09-04T21:11:48.862Z,18.90
2022-09-04T21:14:19.827Z,19.32
2022-09-04T21:17:02.072Z,19.33
2022-09-04T21:20:03.043Z,18.83
2022-09-04T21:22:36.168Z,18.75
2022-09-04T21:25:18.403Z,18.30
2022-09-04T21:28:04.731Z,18.42
2022-09-04T21:30:50.419Z,18.61
2022-09-04T21:33:28.200Z,19.05
2022-09-04T21:36:25.544Z,18.80
2022-09-04T21:39:27.855Z,18.14
2022-09-04T21:42:17.606Z,18.43
2022-09-04T21:44:56.539Z,18.50
2022-09-04T21:47:38.812Z,18.59
2022-09-04T21:50:36.716Z,18.83
2022-09-04T21:53:06.857Z,19.11
2022-09-04T21:59:28.235Z,19.15
2022-09-04T22:02:29.269Z,19.28
2022-09-04T22:02:41.702Z,19.13
2022-09-04T22:04:55.440Z,19.09
2022-09-04T22:10:49.532Z,18.87
2022-09-04T22:13:43.726Z,19.15
2022-09-04T22:13:50.791Z,19.19
2022-09-04T22:16:41.929Z,19.20
2022-09-04T22:19:49.308Z,19.04
2022-09-04T22:22:43.623Z,18.84
2022-09-04T22:25:41.211Z,18.77
2022-09-04T22:28:25.845Z,18.42
2022-09-04T22:31:22.544Z,18.74
2022-09-04T22:34:24.149Z,18.51
2022-09-04T22:37:00.743Z,18.71
2022-09-04T22:39:39.492Z,18.62
2022-09-04T22:42:44.471Z,18.84
2022-09-04T22:45:43.124Z,18.79
2022-09-04T22:48:41.142Z,18.10
2022-09-04T22:51:33.211Z,18.48
2022-09-04T22:54:21.445Z,18.54
2022-09-04T22:57:10.404Z,18.45
2022-09-04T22:59:42.458Z,18.04
2022-09-04T23:03:07.269Z,18.45
2022-09-04T23:07:45.702Z,18.49
2022-09-04T23:13:46.414Z,18.37
2022-09-04T23:14:00.808Z,18.66
2022-09-04T23:15:19.427Z,17.97
2022-09-04T23:18:03.644Z,18.48
2022-09-04T23:26:39.094Z,18.20
2022-09-04T23:26:50.537Z,18.57
2022-09-04T23:27:41.697Z,18.44
2022-09-04T23:30:12.544Z,18.48
2022-09-04T23:33:02.869Z,18.42
2022-09-04T23:35:51.716Z,18.46
2022-09-04T23:38:55.996Z,18.39
2022-09-04T23:42:00.445Z,18.15
2022-09-04T23:44:41.943Z,18.37
2022-09-04T23:47:47.843Z,18.20
2022-09-04T23:50:59.283Z,18.11
2022-09-04T23:53:44.784Z,18.37
2022-09-04T23:56:29.896Z,18.02
2022-09-04T23:59:34.048Z,18.19
